Strathcarron, United Kingdom
Current Conditions -  °F | °C
As of 6:50 AM on Sunday 26 Oct 2014 (Local Time) from EGPL Reporting Station
Light Rain Light Rain  
Wind Chill: 52°   Ceiling: Unl
Heat Index: 52°   Visibility: 4mi
Dew Point: 48°   Wind: 28mph
Humidity: 88%   Direction: 230°SW
Pressure: 29.38"   Gusts: NA
Location:  57.41°N, 5.81°W
Report Text: EGPL 260550Z AUTO 23024KT 6000 -RA SCT016/// SCT029/// 11/09 Q0995
Loading
Personal Weather Stations






























Interactive Weather Map
Tropical Storm Tracking
New forecast layout! Learn more

10-Day Weather Forecast

Advertisements
Track Severe Weather on mobile